To NAV CANADA Home Page Login to a new session Search on AWWS site Feedback and Comments Disclaimer Vers la page française équivalente Tips FAQ What's new on the site To the Forecasts and Observations / NOTAM section To "File a Flight Plan" website Publications and other links Update of the User's profile FIC Telephone Numbers My Weather Data Folder Route Weather Data Regional Weather Data Local Weather Data To the Forecasts and Observations / NOTAM section
Request Generated 09/26/2016 at 17:16:27 UTC . Weather information available at that time is displayed.

METAR/TAF

CHURCHILL/MB    (show WxCam)

METAR CYYQ 261700Z 35023G28KT 15SM OVC009 07/06 A2970 RMK SC8 SLP059=
METAR CYYQ 261600Z 35019G27KT 15SM OVC009 07/06 A2968 RMK SC8 SLP054=
METAR CYYQ 261500Z 35021G26KT 15SM OVC009 07/06 A2967 RMK SC8 SLP051=

TAF CYYQ 261138Z 2612/2712 33012KT P6SM -RA OVC012 TEMPO 2612/2621
4SM -RA BR OVC006
BECMG 2614/2616 34020G30KT
FM262100 34020G30KT P6SM SCT008 OVC020 TEMPO 2621/2703 P6SM -RA
BKN008 OVC020
FM270300 35015G25KT P6SM OVC025 TEMPO 2703/2712 OVC015
RMK NXT FCST BY 261800Z=
Your time UTC time
Weather data provided by Environment Canada and NAV CANADA